Time;durP1;ratioP1;P1;durP2;ratioP2;P2;SDS_P1;SDS_P2;PMS_P1;PMS_P2;Temp;Humidity;BMP_temperature;BMP_pressure;BME280_temperature;BME280_humidity;BME280_pressure;Samples;Min_cycle;Max_cycle;Signal;HPM_P1;HPM_P2
2022/01/11 00:01:45;;;;;;;52.50;24.50;;;;;;;3.96;97.97;102352.46;107888;1281;74903;-81
2022/01/11 00:04:17;;;;;;;46.80;24.20;;;;;;;4.00;98.21;102356.11;107703;1279;71572;-77
2022/01/11 00:06:50;;;;;;;56.50;27.50;;;;;;;4.04;98.28;102357.80;107978;1279;74436;-78
2022/01/11 00:09:34;;;;;;;;;;;;;;;;;;;;;
2022/01/11 00:12:01;;;;;;;44.80;24.30;;;;;;;4.06;98.47;102357.99;108007;1279;62075;-80
2022/01/11 00:14:28;;;;;;;50.30;25.40;;;;;;;4.11;99.05;102353.36;107790;1282;74922;-79
2022/01/11 00:16:55;;;;;;;50.30;24.80;;;;;;;4.16;99.62;102352.35;107821;1281;72531;-77
2022/01/11 00:19:22;;;;;;;63.70;28.70;;;;;;;4.20;99.29;102355.64;107788;1281;73160;-77
2022/01/11 00:21:52;;;;;;;54.90;27.70;;;;;;;4.23;99.91;102358.94;107548;1279;62557;-77
2022/01/11 00:24:30;;;;;;;53.20;26.40;;;;;;;4.26;99.20;102363.14;107768;1280;60721;-78
2022/01/11 00:27:05;;;;;;;50.00;24.60;;;;;;;4.26;99.05;102362.80;107973;1280;76329;-77
2022/01/11 00:29:33;;;;;;;55.10;25.60;;;;;;;4.26;99.08;102372.91;107661;1281;71155;-77
2022/01/11 00:32:05;;;;;;;52.00;24.50;;;;;;;4.24;98.63;102376.73;107942;1279;73050;-77
2022/01/11 00:35:00;;;;;;;44.20;21.50;;;;;;;4.22;98.35;102376.48;107959;1279;62456;-81
2022/01/11 00:37:36;;;;;;;45.80;24.00;;;;;;;4.20;98.01;102374.53;107923;1281;60552;-79
2022/01/11 00:40:04;;;;;;;50.20;23.50;;;;;;;4.17;98.05;102370.52;108067;1280;74939;-78
2022/01/11 00:42:53;;;;;;;51.90;25.40;;;;;;;4.14;98.17;102376.34;107676;1281;70448;-80
2022/01/11 00:45:20;;;;;;;53.80;25.50;;;;;;;4.12;98.39;102377.66;107796;1279;73494;-78
2022/01/11 00:47:47;;;;;;;50.00;23.20;;;;;;;4.09;98.36;102377.82;108034;1280;62193;-80
2022/01/11 00:50:13;;;;;;;57.40;23.70;;;;;;;4.06;98.21;102377.30;107802;1281;60537;-78
2022/01/11 00:52:47;;;;;;;49.80;24.10;;;;;;;4.03;98.60;102378.16;107920;1281;74940;-80
2022/01/11 00:55:20;;;;;;;52.90;25.70;;;;;;;4.00;98.84;102381.13;107885;1280;71494;-80
2022/01/11 00:57:47;;;;;;;44.50;22.70;;;;;;;3.97;98.64;102381.30;107712;1282;73223;-79
2022/01/11 01:00:14;;;;;;;49.70;24.90;;;;;;;3.93;98.28;102387.70;107873;1281;62274;-78
2022/01/11 01:02:41;;;;;;;47.70;23.70;;;;;;;3.84;97.89;102386.82;107987;1278;62140;-79
2022/01/11 01:05:09;;;;;;;51.50;25.30;;;;;;;3.75;97.35;102393.30;108010;1280;74751;-77
2022/01/11 01:07:36;;;;;;;53.60;24.90;;;;;;;3.68;97.83;102396.46;108003;1281;71185;-77
2022/01/11 01:10:12;;;;;;;64.50;25.20;;;;;;;3.62;98.09;102399.96;107944;1280;73928;-80
2022/01/11 01:12:39;;;;;;;47.00;24.60;;;;;;;3.60;98.60;102403.73;107840;1281;62200;-78
2022/01/11 01:15:07;;;;;;;50.30;23.80;;;;;;;3.60;98.83;102403.23;107940;1281;60644;-79
2022/01/11 01:17:37;;;;;;;53.10;23.90;;;;;;;3.62;99.59;102405.41;107833;1281;75271;-77
2022/01/11 01:20:23;;;;;;;44.30;24.60;;;;;;;3.64;99.54;102404.94;107897;1281;71681;-78
2022/01/11 01:23:00;;;;;;;45.70;23.60;;;;;;;3.60;99.03;102408.64;107896;1281;72955;-80
2022/01/11 01:25:30;;;;;;;55.70;24.10;;;;;;;3.59;99.21;102409.22;107578;1281;63248;-77
2022/01/11 01:28:00;;;;;;;46.00;24.90;;;;;;;3.56;98.64;102406.46;107929;1280;61821;-79
2022/01/11 01:30:27;;;;;;;49.60;24.80;;;;;;;3.52;98.71;102410.84;108004;1281;75076;-81
2022/01/11 01:33:04;;;;;;;57.00;26.50;;;;;;;3.53;99.06;102412.39;107918;1280;72527;-80
2022/01/11 01:35:50;;;;;;;49.80;24.40;;;;;;;3.55;99.32;102421.36;107863;1281;71916;-80
2022/01/11 01:38:23;;;;;;;46.90;24.00;;;;;;;3.57;99.79;102420.02;107781;1281;62330;-77
2022/01/11 01:40:52;;;;;;;51.20;24.30;;;;;;;3.60;99.64;102425.11;107898;1281;61609;-77
2022/01/11 01:43:22;;;;;;;50.10;22.50;;;;;;;3.61;99.23;102426.81;107624;1281;75008;-79
2022/01/11 01:45:50;;;;;;;57.50;21.50;;;;;;;3.60;99.03;102427.70;107856;1281;71813;-78
2022/01/11 01:48:22;;;;;;;50.50;24.90;;;;;;;3.60;99.11;102433.64;107954;1281;74426;-79
2022/01/11 01:50:51;;;;;;;57.60;25.00;;;;;;;3.61;99.48;102429.76;107892;1281;62391;-78
2022/01/11 01:53:22;;;;;;;60.10;24.90;;;;;;;3.63;99.30;102430.15;107851;1281;61038;-79
2022/01/11 01:55:49;;;;;;;51.70;26.40;;;;;;;3.66;99.60;102431.73;107571;1281;76811;-77
2022/01/11 01:58:16;;;;;;;49.10;23.80;;;;;;;3.69;99.51;102432.63;107652;1281;71799;-80
2022/01/11 02:00:50;;;;;;;54.70;24.30;;;;;;;3.73;99.64;102435.59;107595;1281;72861;-77
2022/01/11 02:03:25;;;;;;;46.80;24.80;;;;;;;3.74;99.41;102435.70;107640;1281;59365;-77
2022/01/11 02:05:54;;;;;;;61.60;25.80;;;;;;;3.71;99.08;102440.40;107911;1280;61676;-77
2022/01/11 02:08:23;;;;;;;56.10;25.00;;;;;;;3.62;98.52;102438.27;107776;1281;74635;-77
2022/01/11 02:11:03;;;;;;;48.80;23.20;;;;;;;3.59;98.44;102437.77;107876;1281;70414;-80
2022/01/11 02:13:33;;;;;;;54.10;23.30;;;;;;;3.53;98.18;102442.63;107950;1281;73983;-81
2022/01/11 02:16:03;;;;;;;47.00;22.40;;;;;;;3.48;98.32;102444.50;107764;1280;63464;-78
2022/01/11 02:18:30;;;;;;;46.20;22.90;;;;;;;3.44;98.39;102447.70;107899;1281;60297;-80
2022/01/11 02:21:00;;;;;;;54.10;24.50;;;;;;;3.36;98.23;102450.21;107758;1281;74342;-81
2022/01/11 02:23:29;;;;;;;47.70;24.00;;;;;;;3.29;98.14;102446.42;107572;1281;71351;-80
2022/01/11 02:25:59;;;;;;;56.80;23.70;;;;;;;3.26;98.92;102449.52;107573;1281;72997;-80
2022/01/11 02:28:31;;;;;;;64.80;23.70;;;;;;;3.26;99.32;102452.85;107963;1281;62310;-80
2022/01/11 02:31:00;;;;;;;45.30;22.00;;;;;;;3.26;99.46;102458.83;107919;1281;60615;-78
2022/01/11 02:33:54;;;;;;;38.40;21.30;;;;;;;3.20;98.73;102459.66;107653;1281;447063;-79
2022/01/11 02:36:22;;;;;;;47.40;22.10;;;;;;;3.16;98.94;102462.50;107730;1281;71626;-79
2022/01/11 02:38:53;;;;;;;49.20;22.10;;;;;;;3.15;99.32;102461.88;107916;1281;73313;-78
2022/01/11 02:41:27;;;;;;;48.60;23.40;;;;;;;3.11;98.55;102462.63;107551;1281;62264;-77
2022/01/11 02:44:01;;;;;;;47.70;22.90;;;;;;;3.05;98.64;102459.45;107764;1281;60776;-79
2022/01/11 02:46:37;;;;;;;56.00;25.60;;;;;;;3.01;98.82;102461.20;107649;1281;75669;-78
2022/01/11 02:49:04;;;;;;;47.00;22.90;;;;;;;3.01;99.24;102465.42;107843;1281;72466;-80
2022/01/11 02:51:30;;;;;;;46.50;21.90;;;;;;;3.01;99.56;102467.33;107941;1281;73165;-77
2022/01/11 02:53:59;;;;;;;55.90;25.70;;;;;;;2.99;99.50;102469.02;107910;1281;61194;-77
2022/01/11 02:56:36;;;;;;;53.00;22.30;;;;;;;2.97;98.89;102466.70;107849;1281;60298;-77
2022/01/11 02:59:09;;;;;;;43.70;23.00;;;;;;;2.90;98.66;102468.13;107907;1281;74595;-80
2022/01/11 03:01:36;;;;;;;53.10;22.50;;;;;;;2.87;99.20;102468.41;107929;1281;71529;-77
2022/01/11 03:04:04;;;;;;;43.20;22.20;;;;;;;2.83;98.86;102470.39;107835;1281;71943;-80
2022/01/11 03:06:31;;;;;;;41.80;21.80;;;;;;;2.80;99.32;102472.98;107896;1281;63186;-80
2022/01/11 03:08:58;;;;;;;46.70;21.30;;;;;;;2.78;99.27;102472.75;107929;1281;60592;-78
2022/01/11 03:11:32;;;;;;;47.50;24.20;;;;;;;2.74;99.09;102477.85;107698;1281;60940;-77
2022/01/11 03:14:00;;;;;;;42.10;21.00;;;;;;;2.68;99.00;102479.52;107911;1281;72810;-78
2022/01/11 03:16:29;;;;;;;38.40;20.90;;;;;;;2.64;98.85;102480.98;107900;1281;72851;-77
2022/01/11 03:18:57;;;;;;;40.10;19.90;;;;;;;2.59;99.02;102482.83;107824;1279;62023;-77
2022/01/11 03:21:26;;;;;;;37.90;20.90;;;;;;;2.52;99.13;102485.08;107872;1281;60755;-77
2022/01/11 03:23:57;;;;;;;37.70;20.20;;;;;;;2.48;99.07;102488.61;107905;1280;76049;-77
2022/01/11 03:26:24;;;;;;;31.30;18.70;;;;;;;2.43;98.82;102497.78;107701;1281;72533;-77
2022/01/11 03:29:01;;;;;;;32.70;19.80;;;;;;;2.36;98.83;102498.13;107864;1281;73270;-78
2022/01/11 03:31:32;;;;;;;37.10;20.60;;;;;;;2.30;99.17;102499.81;107748;1281;62232;-80
2022/01/11 03:33:59;;;;;;;35.30;20.90;;;;;;;2.25;99.25;102501.31;107523;1281;61575;-78
2022/01/11 03:36:25;;;;;;;39.50;21.30;;;;;;;2.18;99.28;102501.10;107864;1281;74906;-77
2022/01/11 03:38:57;;;;;;;35.90;19.60;;;;;;;2.13;99.51;102502.58;107923;1281;71444;-81
2022/01/11 03:41:24;;;;;;;39.90;21.00;;;;;;;2.11;99.44;102504.97;107934;1281;72061;-78
2022/01/11 03:43:54;;;;;;;41.20;21.20;;;;;;;2.10;99.80;102506.23;107867;1281;63569;-77
2022/01/11 03:46:21;;;;;;;42.00;21.60;;;;;;;2.09;99.96;102506.27;107835;1281;61836;-79
2022/01/11 03:48:48;;;;;;;44.80;24.30;;;;;;;2.12;100.00;102507.36;108048;1281;75644;-81
2022/01/11 03:51:15;;;;;;;54.20;26.10;;;;;;;2.17;100.00;102506.41;107891;1281;72345;-78
2022/01/11 03:54:07;;;;;;;;;;;;;;;;;;;;;
2022/01/11 03:56:34;;;;;;;55.10;27.40;;;;;;;2.25;100.00;102501.28;107674;1281;62291;-79
2022/01/11 03:59:06;;;;;;;54.80;25.90;;;;;;;2.30;100.00;102501.55;107608;1283;61154;-79
2022/01/11 04:01:36;;;;;;;58.20;28.00;;;;;;;2.37;100.00;102505.74;107897;1280;74712;-80
2022/01/11 04:04:04;;;;;;;59.50;29.30;;;;;;;2.42;100.00;102507.41;107886;1281;71150;-80
2022/01/11 04:06:41;;;;;;;59.00;28.90;;;;;;;2.47;100.00;102506.11;107887;1281;72899;-77
2022/01/11 04:09:16;;;;;;;54.60;26.00;;;;;;;2.56;100.00;102506.21;107697;1281;62197;-77
2022/01/11 04:11:43;;;;;;;59.50;27.40;;;;;;;2.62;100.00;102510.05;108059;1280;61631;-77
2022/01/11 04:14:12;;;;;;;58.50;28.60;;;;;;;2.70;100.00;102511.06;107778;1281;74248;-78
2022/01/11 04:16:42;;;;;;;59.20;29.00;;;;;;;2.78;100.00;102509.59;108038;1281;72404;-77
2022/01/11 04:19:16;;;;;;;60.90;28.00;;;;;;;2.83;100.00;102509.87;108014;1280;73966;-78
2022/01/11 04:21:43;;;;;;;71.70;29.10;;;;;;;2.86;100.00;102509.36;107986;1280;62347;-79
2022/01/11 04:24:12;;;;;;;60.80;28.80;;;;;;;2.88;100.00;102509.64;108016;1281;61604;-80
2022/01/11 04:26:45;;;;;;;66.90;27.60;;;;;;;2.92;100.00;102508.89;107971;1281;74964;-76
2022/01/11 04:29:18;;;;;;;46.90;23.30;;;;;;;2.93;100.00;102507.45;107904;1281;72792;-76
2022/01/11 04:31:48;;;;;;;53.30;22.90;;;;;;;2.92;100.00;102510.67;108012;1279;74107;-76
2022/01/11 04:34:25;;;;;;;54.40;23.80;;;;;;;2.89;100.00;102511.14;107792;1281;63021;-79
2022/01/11 04:36:52;;;;;;;64.80;23.90;;;;;;;2.87;100.00;102511.42;108040;1279;60138;-77
2022/01/11 04:39:18;;;;;;;69.50;25.50;;;;;;;2.84;100.00;102510.31;108033;1281;76143;-78
2022/01/11 04:41:45;;;;;;;55.80;23.70;;;;;;;2.83;100.00;102505.16;107993;1279;71114;-76
2022/01/11 04:44:12;;;;;;;82.80;30.10;;;;;;;2.81;100.00;102505.07;107962;1279;72948;-78
2022/01/11 04:46:39;;;;;;;64.90;25.70;;;;;;;2.78;100.00;102509.45;108004;1279;60232;-76
2022/01/11 04:49:32;;;;;;;71.50;26.30;;;;;;;2.77;100.00;102509.68;107954;1280;61728;-79
2022/01/11 04:52:13;;;;;;;;;;;;;;;;;;;;;
2022/01/11 04:54:44;;;;;;;58.50;26.50;;;;;;;2.77;100.00;102512.98;107780;1280;71317;-76
2022/01/11 04:58:01;;;;;;;;;;;;;;;;;;;;;
2022/01/11 05:00:55;;;;;;;;;;;;;;;;;;;;;
2022/01/11 05:03:43;;;;;;;73.80;28.90;;;;;;;2.78;100.00;102519.73;107892;1279;60376;-77
2022/01/11 05:06:51;;;;;;;80.10;34.00;;;;;;;2.75;100.00;102521.63;107786;1281;74372;-79
2022/01/11 05:09:57;;;;;;;;;;;;;;;;;;;;;
2022/01/11 05:12:42;;;;;;;;;;;;;;;;;;;;;
2022/01/11 05:15:39;;;;;;;71.20;28.60;;;;;;;2.72;100.00;102533.00;107812;1279;62374;-77
2022/01/11 05:18:12;;;;;;;65.60;30.40;;;;;;;2.68;100.00;102531.10;107731;1279;60582;-76
2022/01/11 05:20:42;;;;;;;66.70;28.70;;;;;;;2.65;100.00;102528.95;108055;1279;75011;-78
2022/01/11 05:23:10;;;;;;;76.90;31.10;;;;;;;2.65;100.00;102535.60;108046;1279;72496;-79
2022/01/11 05:25:54;;;;;;;;;;;;;;;;;;;;;
2022/01/11 05:28:25;;;;;;;;;;;;;;;2.63;100.00;102536.27;108055;1279;63306;-76
2022/01/11 05:31:04;;;;;;;80.10;32.90;;;;;;;2.63;100.00;102538.67;107984;1279;62363;-77
2022/01/11 05:33:34;;;;;;;74.30;32.80;;;;;;;2.65;100.00;102545.02;108016;1279;76111;-79
2022/01/11 05:36:01;;;;;;;82.80;32.30;;;;;;;2.67;100.00;102552.13;107960;1280;72849;-76
2022/01/11 05:38:30;;;;;;;69.80;28.80;;;;;;;2.64;100.00;102546.65;107968;1279;72889;-78
2022/01/11 05:41:00;;;;;;;72.00;32.70;;;;;;;2.63;100.00;102547.23;108046;1279;63223;-77
2022/01/11 05:43:27;;;;;;;84.90;32.40;;;;;;;2.64;100.00;102542.48;107722;1281;59483;-76
2022/01/11 05:45:55;;;;;;;86.20;36.60;;;;;;;2.63;100.00;102543.75;107597;1281;75933;-76
2022/01/11 05:48:45;;;;;;;77.40;33.20;;;;;;;2.61;100.00;102547.15;108041;1279;71373;-78
2022/01/11 05:51:24;;;;;;;79.50;33.90;;;;;;;2.62;100.00;102545.88;107969;1281;74120;-76
2022/01/11 05:53:58;;;;;;;78.30;33.90;;;;;;;2.66;100.00;102547.42;107731;1281;62236;-77
2022/01/11 05:56:27;;;;;;;73.20;33.40;;;;;;;2.68;100.00;102549.24;108054;1280;61609;-80
2022/01/11 05:58:53;;;;;;;77.50;30.40;;;;;;;2.70;100.00;102553.52;107714;1281;76046;-76
2022/01/11 06:01:50;;;;;;;91.00;31.50;;;;;;;2.72;100.00;102558.50;107995;1279;72397;-79
2022/01/11 06:04:19;;;;;;;74.20;31.50;;;;;;;2.76;100.00;102559.70;107887;1280;73013;-79
2022/01/11 06:06:49;;;;;;;81.70;33.10;;;;;;;2.79;100.00;102558.46;107680;1280;61639;-77
2022/01/11 06:09:32;;;;;;;76.50;30.30;;;;;;;2.77;100.00;102564.52;108043;1279;60571;-81
2022/01/11 06:11:58;;;;;;;79.90;30.50;;;;;;;2.72;100.00;102563.71;107699;1280;75334;-79
2022/01/11 06:14:35;;;;;;;;;;;;;;;;;;;;;
2022/01/11 06:17:04;;;;;;;75.50;29.70;;;;;;;2.69;100.00;102568.27;108081;1279;73168;-77
2022/01/11 06:19:32;;;;;;;81.60;28.60;;;;;;;2.66;100.00;102569.59;107983;1279;63645;-76
2022/01/11 06:22:05;;;;;;;90.20;31.10;;;;;;;2.64;100.00;102569.86;108019;1279;60731;-79
2022/01/11 06:24:35;;;;;;;77.50;31.50;;;;;;;2.62;100.00;102572.96;107537;1281;75576;-76
2022/01/11 06:27:25;;;;;;;;;;;;;;;;;;;;;
2022/01/11 06:30:04;;;;;;;;;;;;;;;;;;;;;
2022/01/11 06:32:47;;;;;;;94.20;35.70;;;;;;;2.58;100.00;102571.42;107889;1281;61499;-80
2022/01/11 06:35:28;;;;;;;92.30;33.30;;;;;;;2.56;100.00;102573.27;107945;1279;60588;-79
2022/01/11 06:37:57;;;;;;;81.30;27.50;;;;;;;2.58;100.00;102579.11;107606;1280;75969;-78
2022/01/11 06:40:26;;;;;;;85.40;29.10;;;;;;;2.61;100.00;102583.68;107961;1279;71120;-79
2022/01/11 06:42:56;;;;;;;114.40;40.30;;;;;;;2.63;100.00;102583.05;107945;1279;75698;-76
2022/01/11 06:45:36;;;;;;;147.50;39.60;;;;;;;2.63;100.00;102586.84;108098;1279;60960;-76
2022/01/11 06:48:08;;;;;;;96.20;30.00;;;;;;;2.66;100.00;102592.14;107799;1281;59379;-76
2022/01/11 06:50:38;;;;;;;109.10;30.00;;;;;;;2.70;100.00;102591.45;107750;1280;76108;-76
2022/01/11 06:53:07;;;;;;;109.60;32.50;;;;;;;2.72;100.00;102596.21;108046;1279;71500;-78
2022/01/11 06:55:34;;;;;;;81.90;29.50;;;;;;;2.74;100.00;102598.06;107858;1280;74176;-75
2022/01/11 06:58:07;;;;;;;125.60;33.30;;;;;;;2.74;100.00;102603.64;107973;1279;63775;-78
2022/01/11 07:00:46;;;;;;;108.50;30.80;;;;;;;2.74;100.00;102601.71;107846;1279;61971;-79
2022/01/11 07:03:15;;;;;;;105.50;30.30;;;;;;;2.72;100.00;102610.38;108075;1280;73910;-76
2022/01/11 07:05:43;;;;;;;99.40;32.50;;;;;;;2.70;100.00;102610.46;107753;1279;72319;-78
2022/01/11 07:08:11;;;;;;;97.50;32.00;;;;;;;2.70;100.00;102610.64;107551;1281;73111;-76
2022/01/11 07:10:38;;;;;;;94.90;31.90;;;;;;;2.71;100.00;102611.65;108024;1279;62402;-77
2022/01/11 07:13:11;;;;;;;92.40;31.90;;;;;;;2.73;100.00;102617.50;108102;1280;60203;-79
2022/01/11 07:15:38;;;;;;;96.90;29.20;;;;;;;2.78;100.00;102623.33;107718;1279;74692;-75
2022/01/11 07:18:10;;;;;;;88.90;31.30;;;;;;;2.82;100.00;102625.92;107973;1280;71359;-76
2022/01/11 07:20:41;;;;;;;83.90;28.40;;;;;;;2.84;100.00;102628.46;107704;1280;72933;-75
2022/01/11 07:23:14;;;;;;;93.80;31.90;;;;;;;2.88;100.00;102627.95;107609;1281;62820;-78
2022/01/11 07:25:41;;;;;;;98.00;33.50;;;;;;;2.87;100.00;102629.55;107666;1279;60566;-77
2022/01/11 07:28:15;;;;;;;91.50;30.10;;;;;;;2.84;100.00;102628.28;108046;1281;75086;-76
2022/01/11 07:30:42;;;;;;;87.70;32.40;;;;;;;2.81;100.00;102630.52;108094;1280;71208;-76
2022/01/11 07:33:12;;;;;;;75.80;23.90;;;;;;;2.79;100.00;102631.48;107626;1281;74022;-76
2022/01/11 07:35:51;;;;;;;89.90;29.30;;;;;;;2.76;100.00;102634.48;107857;1280;62263;-77
2022/01/11 07:38:31;;;;;;;111.10;31.80;;;;;;;2.73;100.00;102637.25;108071;1281;61577;-78
2022/01/11 07:40:58;;;;;;;107.40;30.70;;;;;;;2.72;100.00;102632.22;108090;1279;74056;-76
2022/01/11 07:43:25;;;;;;;102.20;32.80;;;;;;;2.70;100.00;102632.85;107660;1281;71712;-77
2022/01/11 07:45:55;;;;;;;95.10;32.00;;;;;;;2.68;100.00;102638.55;107714;1281;73050;-76
2022/01/11 07:48:32;;;;;;;96.40;29.70;;;;;;;2.66;100.00;102636.73;107632;1279;60820;-77
2022/01/11 07:51:18;;;;;;;109.90;34.30;;;;;;;2.64;100.00;102642.40;107863;1281;61690;-79
2022/01/11 07:53:45;;;;;;;95.90;32.70;;;;;;;2.63;100.00;102644.00;108050;1279;73584;-77
2022/01/11 07:56:12;;;;;;;119.60;34.10;;;;;;;2.63;100.00;102641.52;108035;1279;72395;-77
2022/01/11 07:58:59;;;;;;;;;;;;;;;;;;;;;
2022/01/11 08:01:29;;;;;;;93.70;30.30;;;;;;;2.68;100.00;102648.30;107632;1279;62447;-77
2022/01/11 08:04:07;;;;;;;83.90;28.80;;;;;;;2.73;100.00;102649.99;108008;1279;60813;-76
2022/01/11 08:06:43;;;;;;;94.20;29.40;;;;;;;2.78;100.00;102653.23;108025;1279;75649;-76
2022/01/11 08:09:22;;;;;;;96.20;28.40;;;;;;;2.82;100.00;102653.70;107731;1281;72326;-79
2022/01/11 08:11:50;;;;;;;94.70;31.20;;;;;;;2.86;100.00;102659.45;108093;1279;71959;-76
2022/01/11 08:14:17;;;;;;;94.00;29.10;;;;;;;2.90;100.00;102662.45;108007;1281;62242;-77
2022/01/11 08:16:55;;;;;;;74.80;24.00;;;;;;;2.97;100.00;102664.52;107843;1281;62135;-79
2022/01/11 08:19:25;;;;;;;116.80;32.20;;;;;;;2.99;100.00;102665.48;107746;1280;76127;-79
2022/01/11 08:21:58;;;;;;;89.40;30.20;;;;;;;2.99;100.00;102665.64;108001;1279;71457;-79
2022/01/11 08:24:25;;;;;;;94.40;31.80;;;;;;;3.02;100.00;102663.41;108035;1281;74075;-76
2022/01/11 08:26:54;;;;;;;106.30;29.70;;;;;;;3.05;100.00;102662.73;107814;1280;62268;-77
2022/01/11 08:29:24;;;;;;;88.10;24.60;;;;;;;3.08;100.00;102664.66;108037;1279;59531;-79
2022/01/11 08:32:01;;;;;;;99.10;31.30;;;;;;;3.07;100.00;102665.43;107660;1281;75094;-79
2022/01/11 08:34:33;;;;;;;100.60;30.70;;;;;;;3.08;100.00;102664.15;107693;1280;71356;-77
2022/01/11 08:37:05;;;;;;;92.10;30.50;;;;;;;3.09;100.00;102663.59;108066;1279;71957;-77
2022/01/11 08:39:38;;;;;;;79.50;27.90;;;;;;;3.12;100.00;102666.42;107572;1279;60141;-77
2022/01/11 08:42:08;;;;;;;90.40;28.90;;;;;;;3.15;100.00;102670.10;107855;1281;61136;-77
2022/01/11 08:44:55;;;;;;;95.60;30.50;;;;;;;3.18;100.00;102667.84;108035;1279;76290;-78
2022/01/11 08:47:30;;;;;;;100.20;29.70;;;;;;;3.24;100.00;102669.27;107644;1281;73770;-78
2022/01/11 08:50:08;;;;;;;78.70;29.60;;;;;;;3.26;100.00;102669.67;107778;1279;71141;-80
2022/01/11 08:52:35;;;;;;;74.60;29.20;;;;;;;3.27;100.00;102681.34;107781;1281;63453;-78
2022/01/11 08:55:11;;;;;;;78.30;31.00;;;;;;;3.28;100.00;102682.38;108102;1279;60467;-79
2022/01/11 08:57:38;;;;;;;76.10;27.60;;;;;;;3.26;100.00;102688.06;107761;1281;75084;-78
2022/01/11 09:00:10;;;;;;;83.80;30.00;;;;;;;3.23;100.00;102685.40;107649;1281;71328;-76
2022/01/11 09:02:47;;;;;;;81.00;28.50;;;;;;;3.21;100.00;102686.73;108074;1279;72771;-78
2022/01/11 09:05:20;;;;;;;78.10;29.70;;;;;;;3.21;100.00;102688.66;108082;1279;62407;-78
2022/01/11 09:07:50;;;;;;;67.70;27.80;;;;;;;3.21;100.00;102687.77;107716;1281;61826;-77
2022/01/11 09:10:18;;;;;;;55.00;21.00;;;;;;;3.24;100.00;102686.94;107800;1281;75108;-76
2022/01/11 09:12:45;;;;;;;61.10;22.00;;;;;;;3.25;100.00;102691.76;108035;1279;72629;-75
2022/01/11 09:15:15;;;;;;;63.60;25.70;;;;;;;3.24;100.00;102694.08;108081;1278;73031;-76
2022/01/11 09:17:47;;;;;;;68.90;25.70;;;;;;;3.26;100.00;102689.43;108079;1279;63321;-77
2022/01/11 09:20:27;;;;;;;49.80;22.50;;;;;;;3.28;100.00;102688.50;108024;1279;59319;-78
2022/01/11 09:22:54;;;;;;;54.90;23.60;;;;;;;3.29;100.00;102692.81;107893;1279;75916;-78
2022/01/11 09:25:21;;;;;;;30.20;9.70;;;;;;;3.30;100.00;102695.75;107921;1279;69892;-77
2022/01/11 09:28:01;;;;;;;;;;;;;;;;;;;;;
2022/01/11 09:30:37;;;;;;;61.90;24.00;;;;;;;3.19;100.00;102689.41;107742;1281;63298;-76
2022/01/11 09:33:04;;;;;;;56.00;20.60;;;;;;;3.15;100.00;102688.78;108095;1279;60640;-77
2022/01/11 09:35:37;;;;;;;50.00;21.60;;;;;;;3.11;100.00;102688.27;107841;1279;76054;-76
2022/01/11 09:38:14;;;;;;;46.50;18.40;;;;;;;3.10;100.00;102689.05;107724;1279;72488;-77
2022/01/11 09:40:41;;;;;;;62.80;23.80;;;;;;;3.12;100.00;102688.59;108121;1279;72226;-77
2022/01/11 09:43:10;;;;;;;53.80;21.00;;;;;;;3.15;100.00;102691.08;107991;1279;62104;-76
2022/01/11 09:45:41;;;;;;;55.80;19.40;;;;;;;3.18;100.00;102691.92;107765;1279;60672;-77
2022/01/11 09:48:09;;;;;;;42.20;17.80;;;;;;;3.20;100.00;102692.39;108025;1279;75489;-78
2022/01/11 09:50:38;;;;;;;37.90;18.20;;;;;;;3.18;100.00;102688.60;107622;1279;72586;-77
2022/01/11 09:53:07;;;;;;;22.50;8.50;;;;;;;3.20;100.00;102686.10;108095;1279;72829;-76
2022/01/11 09:55:53;;;;;;;46.10;16.30;;;;;;;3.18;100.00;102685.14;107983;1279;62236;-76
2022/01/11 09:58:52;;;;;;;40.60;15.10;;;;;;;3.16;99.83;102683.14;107861;1279;59426;-76
2022/01/11 10:01:39;;;;;;;41.70;16.50;;;;;;;3.11;99.73;102683.39;107773;1279;75979;-76
2022/01/11 10:04:14;;;;;;;34.80;14.10;;;;;;;3.13;99.80;102683.66;108103;1279;72385;-79
2022/01/11 10:06:53;;;;;;;42.80;17.00;;;;;;;3.14;99.99;102682.52;108105;1279;73985;-76
2022/01/11 10:09:48;;;;;;;43.40;18.60;;;;;;;3.15;100.00;102684.96;108107;1279;62503;-77
2022/01/11 10:12:26;;;;;;;42.30;18.00;;;;;;;3.17;100.00;102689.71;107796;1279;61463;-76
2022/01/11 10:14:59;;;;;;;40.60;13.50;;;;;;;3.22;100.00;102689.83;108075;1279;73937;-77
2022/01/11 10:17:39;;;;;;;30.50;10.60;;;;;;;3.22;99.96;102689.31;108062;1278;73185;-77
2022/01/11 10:20:21;;;;;;;49.90;18.90;;;;;;;3.18;100.00;102686.70;107802;1279;72196;-76
2022/01/11 10:22:56;;;;;;;41.60;15.80;;;;;;;3.17;100.00;102688.15;108096;1279;62267;-75
2022/01/11 10:25:24;;;;;;;51.10;20.70;;;;;;;3.19;100.00;102689.45;107800;1281;60777;-76
2022/01/11 10:28:01;;;;;;;42.30;18.50;;;;;;;3.22;100.00;102683.86;107960;1280;76446;-76
2022/01/11 10:30:49;;;;;;;;;;;;;;;;;;;;;
2022/01/11 10:33:19;;;;;;;36.40;16.40;;;;;;;3.31;100.00;102684.14;107842;1281;72967;-76
2022/01/11 10:35:46;;;;;;;32.00;13.90;;;;;;;3.40;100.00;102683.66;107933;1279;61203;-76
2022/01/11 10:38:27;;;;;;;46.90;18.50;;;;;;;3.49;100.00;102683.40;107957;1279;59717;-77
2022/01/11 10:40:54;;;;;;;39.90;16.60;;;;;;;3.55;99.94;102685.34;107887;1279;72656;-78
2022/01/11 10:43:22;;;;;;;37.70;17.20;;;;;;;3.60;99.99;102692.42;107904;1279;70480;-77
2022/01/11 10:45:58;;;;;;;39.10;17.40;;;;;;;3.64;99.61;102695.52;108020;1279;72862;-75
2022/01/11 10:48:39;;;;;;;34.20;13.90;;;;;;;3.67;99.71;102696.77;107974;1279;62198;-75
2022/01/11 10:51:13;;;;;;;31.60;14.70;;;;;;;3.72;99.54;102694.07;107589;1281;59544;-76
2022/01/11 10:53:41;;;;;;;37.30;16.30;;;;;;;3.74;99.37;102696.80;108092;1279;75038;-75
2022/01/11 10:56:11;;;;;;;33.30;14.30;;;;;;;3.73;98.66;102699.80;108060;1279;72436;-75
2022/01/11 10:58:42;;;;;;;37.00;17.20;;;;;;;3.69;98.35;102702.43;107923;1279;72925;-76
2022/01/11 11:01:13;;;;;;;34.10;15.40;;;;;;;3.66;98.38;102703.80;107505;1281;60527;-75
2022/01/11 11:03:41;;;;;;;37.60;15.60;;;;;;;3.65;98.40;102700.19;107530;1281;59325;-75
2022/01/11 11:06:10;;;;;;;32.60;13.00;;;;;;;3.65;98.63;102698.95;107835;1278;75938;-75
2022/01/11 11:08:45;;;;;;;37.60;16.30;;;;;;;3.66;98.60;102697.54;107902;1279;72629;-75
2022/01/11 11:11:20;;;;;;;25.20;11.10;;;;;;;3.66;98.74;102698.56;107472;1281;74464;-75
2022/01/11 11:13:51;;;;;;;44.20;17.50;;;;;;;3.65;98.59;102702.29;107672;1279;63468;-75
2022/01/11 11:16:26;;;;;;;39.40;16.60;;;;;;;3.64;98.61;102704.61;107775;1279;62541;-75
2022/01/11 11:18:58;;;;;;;36.70;13.10;;;;;;;3.65;98.80;102701.05;107696;1281;73422;-75
2022/01/11 11:21:39;;;;;;;32.80;12.50;;;;;;;3.68;98.87;102699.36;107750;1279;71102;-76
2022/01/11 11:24:11;;;;;;;42.00;16.30;;;;;;;3.70;98.61;102704.01;107540;1280;72867;-76
2022/01/11 11:26:48;;;;;;;43.80;16.80;;;;;;;3.74;98.84;102699.95;107815;1279;62220;-76
2022/01/11 11:29:18;;;;;;;40.30;17.00;;;;;;;3.77;98.53;102698.35;107586;1279;62071;-76
2022/01/11 11:32:08;;;;;;;38.80;15.00;;;;;;;3.82;98.63;102696.00;107899;1279;75243;-76
2022/01/11 11:34:38;;;;;;;30.00;15.60;;;;;;;3.83;98.40;102696.98;107649;1279;72648;-76
2022/01/11 11:37:07;;;;;;;30.40;12.00;;;;;;;3.84;98.45;102697.81;107722;1281;72708;-76
2022/01/11 11:39:34;;;;;;;36.40;14.40;;;;;;;3.82;97.86;102701.08;108074;1279;63787;-76
2022/01/11 11:42:02;;;;;;;33.90;13.30;;;;;;;3.78;97.98;102701.30;107533;1281;61659;-76
2022/01/11 11:44:37;;;;;;;37.40;15.40;;;;;;;3.77;98.15;102698.88;107793;1279;74803;-77
2022/01/11 11:47:06;;;;;;;37.70;14.70;;;;;;;3.81;98.23;102695.36;107778;1279;72675;-77
2022/01/11 11:49:45;;;;;;;36.20;15.80;;;;;;;3.88;98.79;102699.33;108071;1279;73976;-75
2022/01/11 11:52:24;;;;;;;38.10;16.30;;;;;;;3.97;98.49;102699.54;107905;1281;63220;-77